createdAt,value
2022-08-22T00:02:26.730Z,3.17
2022-08-22T00:02:47.664Z,3.38
2022-08-22T00:03:04.654Z,2.78
2022-08-22T00:03:10.807Z,2.10
2022-08-22T00:05:31.871Z,3.08
2022-08-22T00:08:15.271Z,2.70
2022-08-22T00:11:25.760Z,2.80
2022-08-22T00:14:55.387Z,3.30
2022-08-22T00:17:42.701Z,3.28
2022-08-22T00:20:34.800Z,3.70
2022-08-22T00:23:27.246Z,4.03
2022-08-22T00:26:31.956Z,3.38
2022-08-22T00:29:11.031Z,3.00
2022-08-22T00:31:52.641Z,3.38
2022-08-22T00:34:43.693Z,3.83
2022-08-22T00:37:24.296Z,3.95
2022-08-22T00:40:04.127Z,3.92
2022-08-22T00:42:45.105Z,4.07
2022-08-22T00:45:39.854Z,4.22
2022-08-22T00:48:47.680Z,3.88
2022-08-22T00:51:49.414Z,3.40
2022-08-22T00:54:22.289Z,4.00
2022-08-22T00:57:17.026Z,3.78
2022-08-22T00:59:51.651Z,3.58
2022-08-22T01:02:50.408Z,3.90
2022-08-22T01:06:08.531Z,3.65
2022-08-22T01:09:01.332Z,3.67
2022-08-22T01:11:57.719Z,3.85
2022-08-22T01:14:59.063Z,3.63
2022-08-22T01:18:03.092Z,4.30
2022-08-22T01:21:13.589Z,4.25
2022-08-22T01:24:22.309Z,4.88
2022-08-22T01:27:12.325Z,4.40
2022-08-22T01:30:28.630Z,4.40
2022-08-22T01:33:51.451Z,3.70
2022-08-22T01:36:44.073Z,4.10
2022-08-22T01:39:35.548Z,4.40
2022-08-22T01:42:29.926Z,4.28
2022-08-22T01:45:42.604Z,3.35
2022-08-22T01:48:22.460Z,3.92
2022-08-22T01:50:58.358Z,4.10
2022-08-22T01:53:44.495Z,4.45
2022-08-22T01:56:22.108Z,4.10
2022-08-22T01:58:59.911Z,4.07
2022-08-22T02:01:44.799Z,3.83
2022-08-22T02:04:31.119Z,4.72
2022-08-22T02:07:16.800Z,4.78
2022-08-22T02:10:13.850Z,3.80
2022-08-22T02:12:49.175Z,4.30
2022-08-22T02:15:21.890Z,4.05
2022-08-22T02:18:06.628Z,4.10
2022-08-22T02:20:48.661Z,3.90
2022-08-22T02:23:25.311Z,4.28
2022-08-22T02:26:39.976Z,3.42
2022-08-22T02:29:19.374Z,4.03
2022-08-22T02:32:28.787Z,3.47
2022-08-22T02:35:20.994Z,4.18
2022-08-22T02:38:08.258Z,4.45
2022-08-22T02:40:48.482Z,4.50
2022-08-22T02:44:00.480Z,4.25
2022-08-22T02:47:14.960Z,4.60
2022-08-22T02:50:12.869Z,4.75
2022-08-22T02:52:56.581Z,4.28
2022-08-22T02:55:55.064Z,4.95
2022-08-22T02:59:12.153Z,4.43
2022-08-22T03:01:46.634Z,4.60
2022-08-22T03:04:31.806Z,4.50
2022-08-22T03:06:58.631Z,3.90
2022-08-22T03:09:35.452Z,4.13
2022-08-22T03:12:32.040Z,4.78
2022-08-22T03:15:25.828Z,4.32
2022-08-22T03:17:58.112Z,4.60
2022-08-22T03:20:51.731Z,4.65
2022-08-22T03:23:46.620Z,4.32
2022-08-22T03:26:36.475Z,4.32
2022-08-22T03:29:07.877Z,3.97
2022-08-22T03:31:36.519Z,5.00
2022-08-22T03:34:26.404Z,4.50
2022-08-22T03:37:15.120Z,5.47
2022-08-22T03:39:51.272Z,4.43
2022-08-22T03:42:24.272Z,4.97
2022-08-22T03:45:55.012Z,4.65
2022-08-22T03:48:45.858Z,4.75
2022-08-22T03:51:23.239Z,4.75
2022-08-22T03:53:50.164Z,4.80
2022-08-22T03:57:35.771Z,5.05
2022-08-22T04:00:43.278Z,4.60
2022-08-22T04:03:35.957Z,4.57
2022-08-22T04:06:17.764Z,4.13
2022-08-22T04:09:26.815Z,4.72
2022-08-22T04:12:27.266Z,4.68
2022-08-22T04:15:50.417Z,4.55
2022-08-22T04:18:27.553Z,4.10
2022-08-22T04:21:17.198Z,3.67
2022-08-22T04:24:30.825Z,4.13
2022-08-22T04:27:29.571Z,4.53
2022-08-22T04:30:22.203Z,3.70
2022-08-22T04:33:15.429Z,4.43
2022-08-22T04:36:07.700Z,4.30
2022-08-22T04:39:03.633Z,4.70
2022-08-22T04:41:53.294Z,4.82
2022-08-22T04:44:33.686Z,4.50
2022-08-22T04:47:14.916Z,4.07
2022-08-22T04:50:02.261Z,3.78
2022-08-22T04:53:03.325Z,4.30
2022-08-22T04:56:13.000Z,4.25
2022-08-22T04:58:50.917Z,4.30
2022-08-22T05:01:25.648Z,4.22
2022-08-22T05:04:08.391Z,3.85
2022-08-22T05:06:42.142Z,3.95
2022-08-22T05:09:20.861Z,4.72
2022-08-22T05:11:53.387Z,4.22
2022-08-22T05:14:46.337Z,4.78
2022-08-22T05:17:21.262Z,5.00
2022-08-22T05:19:54.213Z,4.80
2022-08-22T05:22:30.363Z,4.20
2022-08-22T05:25:10.948Z,4.75
2022-08-22T05:27:49.051Z,4.40
2022-08-22T05:30:28.206Z,4.93
2022-08-22T05:33:09.338Z,4.55
2022-08-22T05:35:50.832Z,4.78
2022-08-22T05:38:28.137Z,4.45
2022-08-22T05:41:03.537Z,4.18
2022-08-22T05:43:36.599Z,4.30
2022-08-22T05:46:09.838Z,4.45
2022-08-22T05:49:03.167Z,5.60
2022-08-22T05:52:00.045Z,6.28
2022-08-22T05:54:34.664Z,7.38
2022-08-22T05:57:34.813Z,5.47
2022-08-22T06:00:19.114Z,5.43
2022-08-22T06:03:28.433Z,5.03
2022-08-22T06:06:00.005Z,5.47
2022-08-22T06:08:33.179Z,4.78
2022-08-22T06:11:09.480Z,5.38
2022-08-22T06:13:47.339Z,5.20
2022-08-22T06:16:17.134Z,5.50
2022-08-22T06:18:45.971Z,6.13
2022-08-22T06:21:39.434Z,4.82
2022-08-22T06:24:13.627Z,4.85
2022-08-22T06:26:48.707Z,5.32
2022-08-22T06:29:40.327Z,5.28
2022-08-22T06:32:30.749Z,4.55
2022-08-22T06:35:17.134Z,5.03
2022-08-22T06:37:46.859Z,5.57
2022-08-22T06:40:17.090Z,5.85
2022-08-22T06:42:51.351Z,6.38
2022-08-22T06:45:30.219Z,4.68
2022-08-22T06:48:06.672Z,5.65
2022-08-22T06:50:39.187Z,5.80
2022-08-22T06:53:27.244Z,5.22
2022-08-22T06:55:57.653Z,5.00
2022-08-22T06:58:38.288Z,6.43
2022-08-22T07:01:15.157Z,5.60
2022-08-22T07:03:49.378Z,5.47
2022-08-22T07:06:21.295Z,5.05
2022-08-22T07:08:54.140Z,5.28
2022-08-22T07:11:28.655Z,5.70
2022-08-22T07:14:03.052Z,5.93
2022-08-22T07:16:42.789Z,5.00
2022-08-22T07:19:26.609Z,5.90
2022-08-22T07:21:55.065Z,5.68
2022-08-22T07:24:31.286Z,5.65
2022-08-22T07:27:19.317Z,5.82
2022-08-22T07:30:11.221Z,5.28
2022-08-22T07:33:25.322Z,5.85
2022-08-22T07:36:00.730Z,5.65
2022-08-22T07:38:54.654Z,5.40
2022-08-22T07:41:36.814Z,5.70
2022-08-22T07:44:13.705Z,6.07
2022-08-22T07:47:00.666Z,5.75
2022-08-22T07:49:35.587Z,5.90
2022-08-22T07:52:09.991Z,4.95
2022-08-22T07:54:57.856Z,4.50
2022-08-22T07:57:34.275Z,5.25
2022-08-22T08:00:10.992Z,5.35
2022-08-22T08:02:45.649Z,5.13
2022-08-22T08:05:14.022Z,5.00
2022-08-22T08:07:45.463Z,4.93
2022-08-22T08:10:22.682Z,4.95
2022-08-22T08:13:02.548Z,4.72
2022-08-22T08:15:34.399Z,4.80
2022-08-22T08:18:21.942Z,5.15
2022-08-22T08:21:02.090Z,4.30
2022-08-22T08:23:39.576Z,5.55
2022-08-22T08:26:18.869Z,4.53
2022-08-22T08:28:52.171Z,4.70
2022-08-22T08:31:35.327Z,3.90
2022-08-22T08:34:15.823Z,4.53
2022-08-22T08:36:48.536Z,4.30
2022-08-22T08:39:34.984Z,3.85
2022-08-22T08:42:17.459Z,3.80
2022-08-22T08:45:08.845Z,4.10
2022-08-22T08:48:06.427Z,3.65
2022-08-22T08:51:23.786Z,2.90
2022-08-22T08:55:22.792Z,3.40
2022-08-22T08:58:33.735Z,3.65
2022-08-22T09:01:16.884Z,3.38
2022-08-22T09:04:49.095Z,3.38
2022-08-22T09:07:33.866Z,2.80
2022-08-22T09:10:57.851Z,3.00
2022-08-22T09:13:44.605Z,3.25
2022-08-22T09:16:26.477Z,2.97
2022-08-22T09:19:19.827Z,2.50
2022-08-22T09:22:23.151Z,2.47
2022-08-22T09:25:27.905Z,2.00
2022-08-22T09:28:16.124Z,1.90
2022-08-22T09:31:51.492Z,1.90
2022-08-22T09:34:37.181Z,1.88
2022-08-22T09:37:36.282Z,1.88
2022-08-22T09:43:06.798Z,1.92
2022-08-22T09:45:53.797Z,1.90
2022-08-22T09:48:42.473Z,1.88
2022-08-22T09:51:41.838Z,2.15
2022-08-22T09:54:44.085Z,2.03
2022-08-22T09:58:06.782Z,1.90
2022-08-22T10:00:55.658Z,2.13
2022-08-22T10:03:45.263Z,1.88
2022-08-22T10:06:27.916Z,2.20
2022-08-22T10:09:05.455Z,2.30
2022-08-22T10:12:12.919Z,2.65
2022-08-22T10:15:11.346Z,1.92
2022-08-22T10:17:57.337Z,2.10
2022-08-22T10:20:36.443Z,1.70
2022-08-22T10:23:52.730Z,1.85
2022-08-22T10:26:38.977Z,1.85
2022-08-22T10:29:40.030Z,1.65
2022-08-22T10:32:52.710Z,1.77
2022-08-22T10:35:33.915Z,2.00
2022-08-22T10:38:12.523Z,1.58
2022-08-22T10:41:09.159Z,1.70
2022-08-22T10:43:56.434Z,1.90
2022-08-22T10:47:01.219Z,1.67
2022-08-22T10:49:39.254Z,1.73
2022-08-22T10:52:16.418Z,1.83
2022-08-22T10:54:51.543Z,1.80
2022-08-22T10:57:40.259Z,1.88
2022-08-22T11:00:46.441Z,1.48
2022-08-22T11:03:43.839Z,1.80
2022-08-22T11:06:55.028Z,1.42
2022-08-22T11:09:43.891Z,1.70
2022-08-22T11:12:44.644Z,1.60
2022-08-22T11:15:26.205Z,1.60
2022-08-22T11:18:18.466Z,1.95
2022-08-22T11:21:02.465Z,1.73
2022-08-22T11:24:17.764Z,1.88
2022-08-22T11:27:21.021Z,1.35
2022-08-22T11:30:06.664Z,1.52
2022-08-22T11:32:36.681Z,1.77
2022-08-22T11:35:27.625Z,2.22
2022-08-22T11:38:05.549Z,1.40
2022-08-22T11:41:15.199Z,1.80
2022-08-22T11:44:09.320Z,2.13
2022-08-22T11:46:43.949Z,2.13
2022-08-22T11:49:32.911Z,1.77
2022-08-22T11:52:25.578Z,1.73
2022-08-22T11:55:11.445Z,1.95
2022-08-22T11:57:44.956Z,2.08
2022-08-22T12:00:34.610Z,1.80
2022-08-22T12:03:25.088Z,1.80
2022-08-22T12:06:21.179Z,1.52
2022-08-22T12:08:49.553Z,1.80
2022-08-22T12:11:38.544Z,2.08
2022-08-22T12:14:19.068Z,1.98
2022-08-22T12:17:55.698Z,1.65
2022-08-22T12:20:45.591Z,1.50
2022-08-22T12:23:40.053Z,2.05
2022-08-22T12:26:53.281Z,1.80
2022-08-22T12:29:40.056Z,1.67
2022-08-22T12:32:49.145Z,1.67
2022-08-22T12:36:17.841Z,1.70
2022-08-22T12:39:12.787Z,1.85
2022-08-22T12:41:51.410Z,1.90
2022-08-22T12:44:31.292Z,2.05
2022-08-22T12:47:32.101Z,1.75
2022-08-22T12:50:07.165Z,1.95
2022-08-22T12:53:02.297Z,2.10
2022-08-22T12:56:22.585Z,2.00
2022-08-22T12:59:19.629Z,1.75
2022-08-22T13:01:50.477Z,1.90
2022-08-22T13:04:33.086Z,1.98
2022-08-22T13:07:25.038Z,2.05
2022-08-22T13:09:59.886Z,1.73
2022-08-22T13:12:46.588Z,1.67
2022-08-22T13:15:31.141Z,1.75
2022-08-22T13:18:25.149Z,1.70
2022-08-22T13:20:52.706Z,1.50
2022-08-22T13:23:22.217Z,2.08
2022-08-22T13:26:33.583Z,1.70
2022-08-22T13:29:25.247Z,1.80
2022-08-22T13:32:01.510Z,2.10
2022-08-22T13:34:44.110Z,1.70
2022-08-22T13:37:24.585Z,1.80
2022-08-22T13:39:58.904Z,1.38
2022-08-22T13:42:30.951Z,1.60
2022-08-22T13:45:05.431Z,1.80
2022-08-22T13:47:39.411Z,1.80
2022-08-22T13:50:20.853Z,1.80
2022-08-22T13:52:55.108Z,1.73
2022-08-22T13:56:01.601Z,2.03
2022-08-22T13:58:45.578Z,2.00
2022-08-22T14:01:49.216Z,1.85
2022-08-22T14:04:36.211Z,1.85
2022-08-22T14:07:06.090Z,1.95
2022-08-22T14:09:53.330Z,1.90
2022-08-22T14:12:33.417Z,1.60
2022-08-22T14:15:05.554Z,1.77
2022-08-22T14:17:42.839Z,1.90
2022-08-22T14:20:14.721Z,1.88
2022-08-22T14:23:24.441Z,1.90
2022-08-22T14:25:56.052Z,1.70
2022-08-22T14:28:33.639Z,1.58
2022-08-22T14:31:35.168Z,1.95
2022-08-22T14:34:13.621Z,1.77
2022-08-22T14:36:55.052Z,1.70
2022-08-22T14:39:50.462Z,1.70
2022-08-22T14:42:28.704Z,1.70
2022-08-22T14:45:13.151Z,2.25
2022-08-22T14:48:31.204Z,1.80
2022-08-22T14:51:17.225Z,1.70
2022-08-22T14:53:44.268Z,1.63
2022-08-22T14:56:21.625Z,1.77
2022-08-22T14:59:08.312Z,1.75
2022-08-22T15:01:58.973Z,1.90
2022-08-22T15:04:42.967Z,1.75
2022-08-22T15:07:21.740Z,2.00
2022-08-22T15:10:03.328Z,1.90
2022-08-22T15:12:37.774Z,1.70
2022-08-22T15:15:32.636Z,1.45
2022-08-22T15:18:35.901Z,1.70
2022-08-22T15:21:21.032Z,1.85
2022-08-22T15:23:56.196Z,1.70
2022-08-22T15:26:39.459Z,1.80
2022-08-22T15:29:18.630Z,1.65
2022-08-22T15:31:55.302Z,2.20
2022-08-22T15:35:08.377Z,1.77
2022-08-22T15:37:58.693Z,1.90
2022-08-22T15:40:45.682Z,1.90
2022-08-22T15:43:35.312Z,2.05
2022-08-22T15:46:20.754Z,1.65
2022-08-22T15:49:07.050Z,1.85
2022-08-22T15:52:00.935Z,2.03
2022-08-22T15:54:46.873Z,1.80
2022-08-22T15:57:30.345Z,1.90
2022-08-22T16:00:30.741Z,2.05
2022-08-22T16:03:24.916Z,2.05
2022-08-22T16:06:01.329Z,1.90
2022-08-22T16:08:50.341Z,1.88
2022-08-22T16:11:38.655Z,1.90
2022-08-22T16:14:45.453Z,1.80
2022-08-22T16:17:42.731Z,1.90
2022-08-22T16:20:19.255Z,1.77
2022-08-22T16:22:58.770Z,1.80
2022-08-22T16:26:03.937Z,2.13
2022-08-22T16:29:05.521Z,1.67
2022-08-22T16:31:44.655Z,2.10
2022-08-22T16:34:17.761Z,1.70
2022-08-22T16:36:52.133Z,1.90
2022-08-22T16:39:22.054Z,1.95
2022-08-22T16:41:56.365Z,2.15
2022-08-22T16:44:29.062Z,1.77
2022-08-22T16:47:13.830Z,1.70
2022-08-22T16:49:55.013Z,2.05
2022-08-22T16:52:24.743Z,1.80
2022-08-22T16:55:00.113Z,1.65
2022-08-22T16:58:05.611Z,1.40
2022-08-22T17:00:59.842Z,1.70
2022-08-22T17:03:32.807Z,1.95
2022-08-22T17:06:53.021Z,1.77
2022-08-22T17:09:30.362Z,2.05
2022-08-22T17:12:18.352Z,1.60
2022-08-22T17:15:23.660Z,1.80
2022-08-22T17:18:15.302Z,1.50
2022-08-22T17:20:47.545Z,1.73
2022-08-22T17:23:58.286Z,1.50
2022-08-22T17:26:55.311Z,1.92
2022-08-22T17:29:40.327Z,2.00
2022-08-22T17:32:30.413Z,1.80
2022-08-22T17:35:32.882Z,2.00
2022-08-22T17:37:59.884Z,1.95
2022-08-22T17:40:54.050Z,1.67
2022-08-22T17:43:49.299Z,3.35
2022-08-22T17:46:36.593Z,3.75
2022-08-22T17:49:26.845Z,3.63
2022-08-22T17:52:20.777Z,3.92
2022-08-22T17:55:20.025Z,4.60
2022-08-22T17:58:37.736Z,4.78
2022-08-22T18:01:37.285Z,4.45
2022-08-22T18:04:10.888Z,4.65
2022-08-22T18:06:49.266Z,4.40
2022-08-22T18:09:40.196Z,4.40
2022-08-22T18:12:21.175Z,4.35
2022-08-22T18:15:03.900Z,5.22
2022-08-22T18:17:44.325Z,3.97
2022-08-22T18:20:25.536Z,4.40
2022-08-22T18:23:21.673Z,4.32
2022-08-22T18:26:24.148Z,4.20
2022-08-22T18:29:01.069Z,4.70
2022-08-22T18:32:08.562Z,4.40
2022-08-22T18:34:47.304Z,4.32
2022-08-22T18:37:48.502Z,4.88
2022-08-22T18:40:37.187Z,4.88
2022-08-22T18:43:37.929Z,5.03
2022-08-22T18:46:27.710Z,5.70
2022-08-22T18:49:14.736Z,4.97
2022-08-22T18:51:43.351Z,5.50
2022-08-22T18:54:13.694Z,5.60
2022-08-22T18:57:25.221Z,4.90
2022-08-22T19:00:16.653Z,5.10
2022-08-22T19:03:21.339Z,4.55
2022-08-22T19:06:10.016Z,5.00
2022-08-22T19:09:21.040Z,4.70
2022-08-22T19:12:01.805Z,5.10
2022-08-22T19:15:06.797Z,4.40
2022-08-22T19:18:12.520Z,4.63
2022-08-22T19:20:59.726Z,5.50
2022-08-22T19:23:32.405Z,5.40
2022-08-22T19:26:20.743Z,4.78
2022-08-22T19:28:48.402Z,4.68
2022-08-22T19:31:41.154Z,4.90
2022-08-22T19:34:35.126Z,4.75
2022-08-22T19:37:30.759Z,4.90
2022-08-22T19:40:09.003Z,5.22
2022-08-22T19:42:39.644Z,4.70
2022-08-22T19:45:26.622Z,5.30
2022-08-22T19:48:14.666Z,4.40
2022-08-22T19:50:43.462Z,5.15
2022-08-22T19:53:31.166Z,4.72
2022-08-22T19:56:29.021Z,4.35
2022-08-22T19:59:37.946Z,4.38
2022-08-22T20:02:31.839Z,4.32
2022-08-22T20:05:27.804Z,5.00
2022-08-22T20:08:26.829Z,4.40
2022-08-22T20:11:32.475Z,3.85
2022-08-22T20:14:22.443Z,4.45
2022-08-22T20:17:25.581Z,4.93
2022-08-22T20:20:18.132Z,5.15
2022-08-22T20:23:15.896Z,5.07
2022-08-22T20:25:52.987Z,4.20
2022-08-22T20:28:48.851Z,4.15
2022-08-22T20:31:27.162Z,5.18
2022-08-22T20:34:18.311Z,4.97
2022-08-22T20:36:46.935Z,4.97
2022-08-22T20:39:23.626Z,5.00
2022-08-22T20:42:00.482Z,5.03
2022-08-22T20:44:38.316Z,4.57
2022-08-22T20:47:19.641Z,5.40
2022-08-22T20:50:06.943Z,5.35
2022-08-22T20:52:54.178Z,5.75
2022-08-22T20:55:31.578Z,4.75
2022-08-22T20:58:05.593Z,5.40
2022-08-22T21:00:45.929Z,4.80
2022-08-22T21:03:29.186Z,5.70
2022-08-22T21:05:56.157Z,5.70
2022-08-22T21:08:26.513Z,5.72
2022-08-22T21:11:22.631Z,5.53
2022-08-22T21:13:50.516Z,5.30
2022-08-22T21:16:33.722Z,5.03
2022-08-22T21:19:04.739Z,6.53
2022-08-22T21:21:35.036Z,6.05
2022-08-22T21:24:07.102Z,5.57
2022-08-22T21:26:37.866Z,5.80
2022-08-22T21:29:23.248Z,5.35
2022-08-22T21:31:59.252Z,5.30
2022-08-22T21:34:43.280Z,5.00
2022-08-22T21:37:17.532Z,5.15
2022-08-22T21:39:50.713Z,6.88
2022-08-22T21:42:30.792Z,5.55
2022-08-22T21:45:06.653Z,5.93
2022-08-22T21:47:41.451Z,5.50
2022-08-22T21:50:23.552Z,5.82
2022-08-22T21:52:56.750Z,5.85
2022-08-22T21:55:34.406Z,6.30
2022-08-22T21:58:34.977Z,6.28
2022-08-22T22:01:22.521Z,6.35
2022-08-22T22:03:52.134Z,6.78
2022-08-22T22:06:19.531Z,5.53
2022-08-22T22:08:46.462Z,5.53
2022-08-22T22:11:15.449Z,6.05
2022-08-22T22:13:43.145Z,5.57
2022-08-22T22:16:12.134Z,5.30
2022-08-22T22:18:40.604Z,5.60
2022-08-22T22:21:08.017Z,5.65
2022-08-22T22:23:35.252Z,5.13
2022-08-22T22:26:05.575Z,4.95
2022-08-22T22:28:40.023Z,5.80
2022-08-22T22:31:07.593Z,5.95
2022-08-22T22:33:39.547Z,6.35
2022-08-22T22:36:22.701Z,5.90
2022-08-22T22:38:53.974Z,6.30
2022-08-22T22:41:25.463Z,5.72
2022-08-22T22:43:53.744Z,5.53
2022-08-22T22:46:22.551Z,5.50
2022-08-22T22:48:49.793Z,5.95
2022-08-22T22:51:16.789Z,5.05
2022-08-22T22:53:44.889Z,5.32
2022-08-22T22:56:22.294Z,4.90
2022-08-22T22:58:58.969Z,5.00
2022-08-22T23:01:28.341Z,5.60
2022-08-22T23:03:57.131Z,5.20
2022-08-22T23:06:26.468Z,5.60
2022-08-22T23:08:54.462Z,5.63
2022-08-22T23:11:28.522Z,5.72
2022-08-22T23:13:56.251Z,5.63
2022-08-22T23:16:28.236Z,5.07
2022-08-22T23:18:55.801Z,5.35
2022-08-22T23:21:28.352Z,5.20
2022-08-22T23:24:00.287Z,6.40
2022-08-22T23:26:28.688Z,7.03
2022-08-22T23:28:56.803Z,7.15
2022-08-22T23:31:34.755Z,6.75
2022-08-22T23:34:12.527Z,6.28
2022-08-22T23:36:45.473Z,6.38
2022-08-22T23:39:14.408Z,6.30
2022-08-22T23:41:42.258Z,6.75
2022-08-22T23:44:13.639Z,6.07
2022-08-22T23:46:42.072Z,5.82
2022-08-22T23:49:09.298Z,5.82
2022-08-22T23:51:36.573Z,5.95
2022-08-22T23:54:04.933Z,5.50
2022-08-22T23:56:42.454Z,5.63
2022-08-22T23:59:13.519Z,5.93
